Aeroporto :
LOGIN :

Iscrizione | Disclaimer

   EN    FR    IT 

 










Sommario :    VFR   VFR Marginale   IFR   IFR Intensivo   IFR Molto Intensivo
Visibilità : 
Base nubi : 
>= 8 km
>= 3000ft
5 / 8 km
1000 / 3000 ft
1500m / 5 km
500 / 1000 ft
800 / 1500m
200 / 500 ft
< 800m
< 200 ft
Simboli :   Temporali  Nebbia  Neve Forte  Precipitazioni Forti  Vento > 20 kt
SIGMETs :   Varie  Temporali  Ghiacco  Turbolenza  Onda orograficha  Ceneri Vulcaniche







- Altitudine del aeroporto : 65 ft
- Codice IATA : PIK
- Carte del aeroporto


EGPK - Glasgow Prestwick

ULTIMO METAR :
  • 210150Z 13004KT 9999 FEW048 09/06 Q1024

METARs OBSOLETI :
  • 210050Z 11002KT 9000 FEW048 10/08 Q1024
  • 202350Z 00000KT 9000 FEW048 11/09 Q1025
  • 202320Z 00000KT 9000 FEW048 11/09 Q1025

TAF TAF EGPK
Valido dal 21 a 00 ore il 22 a 00 ore UTC


202302Z 2100/2124 VRB03KT CAVOK
PROB40 2100/2107 7000
BECMG 2109/2112 17012KT
TEMPO 2115/2124 18015G25KT
PROB30
TEMPO 2118/2124 7000
Nessun NOTAM noto per questo aeroporto.



MetMap, La meteo Aeronautica in un colpo d'occhio ! - Copyright ORBIFLY Dicembre 2007 - Disclaimer

ORBIFLY MET'MAP TEAM :

Programmazione e sviluppo : Alexandra Zaïnal
Concezione e sviluppo : Baudouin d'Aumeries
Co-Programmazione e sviluppo : Marc-Olivier Méhu
Supporto tecnico e logistico : Manuel Goepfert
Aiuto per la traduzione : Arnaldo La Scala

Contatto : metmap@orbifly.com




FONTI E CREDITI :

   NOAA